Celebrity Summit — 9HJC9 — position and weather

sailwx.info

Track history (hours):
 
Tides and Currents Weather Stations Pressure Air Temp Water Temp Dewpoint Dewpoint Depression Visibility Wind Speed Wind Dir Waves Ship Positions

Celebrity Summit

Last reported at 2017-Mar-24 09:00 UTC. Time now 2017-Mar-24 12:22 UTC.
Position N 22°00' W 085°18'.

Length 294 m; draft 8.3 m.

Type: Passenger vessel. MMSI: 249047000.

Wind from 090 at 25 knots

Barometer 1019.0 mb
Air temperature 22.0 ° C

Date/timePositionNaut miles runAvg speedWind from/ knotsBaromVisibWave heightAir tempDewpointWater temp
2017-Mar-24 09:00N 22°00' W 085°18'12116.2 090 / 251019.0 22.0
2017-Mar-24 01:33N 20°39' W 086°54'9 9.2
2017-Mar-24 00:32N 20°31' W 086°57'0 0.0
2017-Mar-23 23:32N 20°31' W 086°57'0 0.0
2017-Mar-23 22:32N 20°31' W 086°57'0 0.0
2017-Mar-23 21:32N 20°31' W 086°57'0 0.0
2017-Mar-23 20:32N 20°31' W 086°57'0 0.0
2017-Mar-23 19:32N 20°31' W 086°57'0 0.0
2017-Mar-23 18:32N 20°31' W 086°57'0 0.0
2017-Mar-23 17:32N 20°31' W 086°57'0 0.0
2017-Mar-23 16:32N 20°31' W 086°57'0 0.0
2017-Mar-23 15:32N 20°31' W 086°57'1 1.0
2017-Mar-23 14:34N 20°32' W 086°58'2214.0
2017-Mar-23 13:00N 20°48' W 086°42'5513.8 050 / 121020.010.8 22.022.026.1
2017-Mar-23 09:00N 21°42' W 086°30'14516.1 070 / 241017.0 22.0
2017-Mar-23 00:00N 21°36' W 089°06'57 3.4 090 / 301019.1 5.4 23.724.024.3
2017-Mar-22 07:00N 22°12' W 088°18'9213.1 080 / 61020.0 22.0
2017-Mar-22 00:00N 22°36' W 086°42'5819.4 020 / 161019.010.8 22.022.026.0
2017-Mar-21 21:00N 22°54' W 085°42'20415.7 360 / 121019.8 22.0
2017-Mar-21 08:00N 24°00' W 082°12'14116.7 050 / 141019.5 22.0
2017-Mar-20 23:33N 25°18' W 080°03'1514.9
2017-Mar-20 22:33N 25°33' W 079°60'1615.9
2017-Mar-20 21:33N 25°48' W 079°60'1616.2
2017-Mar-20 20:33N 26°04' W 080°04'3 3.0
2017-Mar-20 19:32N 26°05' W 080°07'0 0.0
2017-Mar-20 18:32N 26°05' W 080°07'0 0.0
2017-Mar-20 17:32N 26°05' W 080°07'0 0.0
2017-Mar-20 16:32N 26°05' W 080°07'0 0.0
2017-Mar-20 15:32N 26°05' W 080°07'0 0.0
2017-Mar-20 14:32N 26°05' W 080°07'0 0.0
2017-Mar-20 13:32N 26°05' W 080°07'0 0.0
2017-Mar-20 12:32N 26°05' W 080°07'0 0.0
2017-Mar-20 11:29N 26°05' W 080°07'0 0.0
2017-Mar-20 10:29N 26°05' W 080°07'4 4.1
2017-Mar-20 09:33N 26°06' W 080°03'1110.8
2017-Mar-20 08:33N 26°07' W 079°51'1313.3
2017-Mar-20 07:33N 26°09' W 079°36'611.1
2017-Mar-20 07:00N 26°06' W 079°30'123 5.4 050 / 181020.7 22.0
2017-Mar-19 08:00N 25°18' W 077°24'107 8.9 360 / 31021.0 22.0
2017-Mar-18 20:00N 26°12' W 079°06'10 7.2 010 / 61024.5 24.0
2017-Mar-18 18:33N 26°10' W 079°17'10 8.8
2017-Mar-18 17:27N 26°02' W 079°24'8 8.9
2017-Mar-18 16:33N 25°55' W 079°29'9 9.1
2017-Mar-18 15:33N 25°48' W 079°35'9 9.5
2017-Mar-18 14:33N 25°40' W 079°41'10 9.9
2017-Mar-18 13:33N 25°32' W 079°47'1110.5
2017-Mar-18 12:33N 25°24' W 079°54'13 8.4
2017-Mar-18 11:00N 25°12' W 080°00'3210.8 100 / 201024.0 2.2 21.021.026.2
2017-Mar-18 08:00N 24°48' W 080°24'77 7.7 090 / 121024.1 22.0
2017-Mar-17 22:00N 24°18' W 081°42'28 2.0 080 / 281024.0 5.4 21.021.026.2
2017-Mar-17 08:00N 24°24' W 081°12'8211.0 030 / 201024.9 20.0
2017-Mar-17 00:34N 25°17' W 080°03'1313.4
2017-Mar-16 23:33N 25°30' W 080°00'1413.7
2017-Mar-16 22:33N 25°44' W 079°59'1413.6
2017-Mar-16 21:33N 25°57' W 080°01'10 9.7
2017-Mar-16 20:33N 26°05' W 080°07'0 0.1
2017-Mar-16 19:32N 26°05' W 080°07'0 0.0
2017-Mar-16 18:32N 26°05' W 080°07'0 0.0
2017-Mar-16 17:32N 26°05' W 080°07'0 0.0
2017-Mar-16 16:32N 26°05' W 080°07'0 0.0
2017-Mar-16 15:32N 26°05' W 080°07'0 0.0
2017-Mar-16 14:32N 26°05' W 080°07'0 0.0
2017-Mar-16 13:32N 26°05' W 080°07'0 0.0
2017-Mar-16 12:32N 26°05' W 080°07'0 0.0
2017-Mar-16 11:32N 26°05' W 080°07'0 0.0
2017-Mar-16 10:32N 26°05' W 080°07'0 0.3
2017-Mar-16 09:33N 26°06' W 080°07'8 7.9
2017-Mar-16 08:33N 26°01' W 079°60'1514.7
2017-Mar-16 07:33N 25°46' W 079°59'5 9.0
2017-Mar-16 07:00N 25°48' W 079°54'1637.3 360 / 201023.0 21.0
2017-Mar-16 06:33N 25°32' W 079°58'1514.9
2017-Mar-16 05:34N 25°17' W 079°58'136 6.3
2017-Mar-15 08:00N 24°06' W 082°06'10312.9 350 / 271018.0 22.0
2017-Mar-15 00:00N 23°12' W 083°42'4113.6 010 / 201017.0 5.4 21.021.026.5
2017-Mar-14 21:00N 22°48' W 084°18'9812.2 020 / 191017.4 25.0
2017-Mar-14 13:00N 21°42' W 085°36'4912.3 1017.0 5.4 22.022.026.5
2017-Mar-14 09:00N 21°06' W 086°12'   360 / 161014.4 25.0
Track history (hours):
 
Tides and Currents Weather Stations Pressure Air Temp Water Temp Dewpoint Dewpoint Depression Visibility Wind Speed Wind Dir Waves Ship Positions

Celebrity Summit

Last reported at 2017-Mar-24 09:00 UTC. Time now 2017-Mar-24 12:22 UTC.
Position N 22°00' W 085°18'.

Length 294 m; draft 8.3 m.

Type: Passenger vessel. MMSI: 249047000.

Wind from 090 at 25 knots

Barometer 1019.0 mb
Air temperature 22.0 ° C

Date/timePositionNaut miles runAvg speedWind from/ knotsBaromVisibWave heightAir tempDewpointWater temp
2017-Mar-24 09:00N 22°00' W 085°18'12116.2 090 / 251019.0 22.0
2017-Mar-24 01:33N 20°39' W 086°54'9 9.2
2017-Mar-24 00:32N 20°31' W 086°57'0 0.0
2017-Mar-23 23:32N 20°31' W 086°57'0 0.0
2017-Mar-23 22:32N 20°31' W 086°57'0 0.0
2017-Mar-23 21:32N 20°31' W 086°57'0 0.0
2017-Mar-23 20:32N 20°31' W 086°57'0 0.0
2017-Mar-23 19:32N 20°31' W 086°57'0 0.0
2017-Mar-23 18:32N 20°31' W 086°57'0 0.0
2017-Mar-23 17:32N 20°31' W 086°57'0 0.0
2017-Mar-23 16:32N 20°31' W 086°57'0 0.0
2017-Mar-23 15:32N 20°31' W 086°57'1 1.0
2017-Mar-23 14:34N 20°32' W 086°58'2214.0
2017-Mar-23 13:00N 20°48' W 086°42'5513.8 050 / 121020.010.8 22.022.026.1
2017-Mar-23 09:00N 21°42' W 086°30'14516.1 070 / 241017.0 22.0
2017-Mar-23 00:00N 21°36' W 089°06'57 3.4 090 / 301019.1 5.4 23.724.024.3
2017-Mar-22 07:00N 22°12' W 088°18'9213.1 080 / 61020.0 22.0
2017-Mar-22 00:00N 22°36' W 086°42'5819.4 020 / 161019.010.8 22.022.026.0
2017-Mar-21 21:00N 22°54' W 085°42'20415.7 360 / 121019.8 22.0
2017-Mar-21 08:00N 24°00' W 082°12'14116.7 050 / 141019.5 22.0
2017-Mar-20 23:33N 25°18' W 080°03'1514.9
2017-Mar-20 22:33N 25°33' W 079°60'1615.9
2017-Mar-20 21:33N 25°48' W 079°60'1616.2
2017-Mar-20 20:33N 26°04' W 080°04'3 3.0
2017-Mar-20 19:32N 26°05' W 080°07'0 0.0
2017-Mar-20 18:32N 26°05' W 080°07'0 0.0
2017-Mar-20 17:32N 26°05' W 080°07'0 0.0
2017-Mar-20 16:32N 26°05' W 080°07'0 0.0
2017-Mar-20 15:32N 26°05' W 080°07'0 0.0
2017-Mar-20 14:32N 26°05' W 080°07'0 0.0
2017-Mar-20 13:32N 26°05' W 080°07'0 0.0
2017-Mar-20 12:32N 26°05' W 080°07'0 0.0
2017-Mar-20 11:29N 26°05' W 080°07'0 0.0
2017-Mar-20 10:29N 26°05' W 080°07'4 4.1
2017-Mar-20 09:33N 26°06' W 080°03'1110.8
2017-Mar-20 08:33N 26°07' W 079°51'1313.3
2017-Mar-20 07:33N 26°09' W 079°36'611.1
2017-Mar-20 07:00N 26°06' W 079°30'123 5.4 050 / 181020.7 22.0
2017-Mar-19 08:00N 25°18' W 077°24'107 8.9 360 / 31021.0 22.0
2017-Mar-18 20:00N 26°12' W 079°06'10 7.2 010 / 61024.5 24.0
2017-Mar-18 18:33N 26°10' W 079°17'10 8.8
2017-Mar-18 17:27N 26°02' W 079°24'8 8.9
2017-Mar-18 16:33N 25°55' W 079°29'9 9.1
2017-Mar-18 15:33N 25°48' W 079°35'9 9.5
2017-Mar-18 14:33N 25°40' W 079°41'10 9.9
2017-Mar-18 13:33N 25°32' W 079°47'1110.5
2017-Mar-18 12:33N 25°24' W 079°54'13 8.4
2017-Mar-18 11:00N 25°12' W 080°00'3210.8 100 / 201024.0 2.2 21.021.026.2
2017-Mar-18 08:00N 24°48' W 080°24'77 7.7 090 / 121024.1 22.0
2017-Mar-17 22:00N 24°18' W 081°42'28 2.0 080 / 281024.0 5.4 21.021.026.2
2017-Mar-17 08:00N 24°24' W 081°12'8211.0 030 / 201024.9 20.0
2017-Mar-17 00:34N 25°17' W 080°03'1313.4
2017-Mar-16 23:33N 25°30' W 080°00'1413.7
2017-Mar-16 22:33N 25°44' W 079°59'1413.6
2017-Mar-16 21:33N 25°57' W 080°01'10 9.7
2017-Mar-16 20:33N 26°05' W 080°07'0 0.1
2017-Mar-16 19:32N 26°05' W 080°07'0 0.0
2017-Mar-16 18:32N 26°05' W 080°07'0 0.0
2017-Mar-16 17:32N 26°05' W 080°07'0 0.0
2017-Mar-16 16:32N 26°05' W 080°07'0 0.0
2017-Mar-16 15:32N 26°05' W 080°07'0 0.0
2017-Mar-16 14:32N 26°05' W 080°07'0 0.0
2017-Mar-16 13:32N 26°05' W 080°07'0 0.0
2017-Mar-16 12:32N 26°05' W 080°07'0 0.0
2017-Mar-16 11:32N 26°05' W 080°07'0 0.0
2017-Mar-16 10:32N 26°05' W 080°07'0 0.3
2017-Mar-16 09:33N 26°06' W 080°07'8 7.9
2017-Mar-16 08:33N 26°01' W 079°60'1514.7
2017-Mar-16 07:33N 25°46' W 079°59'5 9.0
2017-Mar-16 07:00N 25°48' W 079°54'1637.3 360 / 201023.0 21.0
2017-Mar-16 06:33N 25°32' W 079°58'1514.9
2017-Mar-16 05:34N 25°17' W 079°58'136 6.3
2017-Mar-15 08:00N 24°06' W 082°06'10312.9 350 / 271018.0 22.0
2017-Mar-15 00:00N 23°12' W 083°42'4113.6 010 / 201017.0 5.4 21.021.026.5
2017-Mar-14 21:00N 22°48' W 084°18'9812.2 020 / 191017.4 25.0
2017-Mar-14 13:00N 21°42' W 085°36'4912.3 1017.0 5.4 22.022.026.5
2017-Mar-14 09:00N 21°06' W 086°12'   360 / 161014.4 25.0

Dump ship's entire track history